Time;durP1;ratioP1;P1;durP2;ratioP2;P2;SDS_P1;SDS_P2;PMS_P1;PMS_P2;Temp;Humidity;BMP_temperature;BMP_pressure;BME280_temperature;BME280_humidity;BME280_pressure;Samples;Min_cycle;Max_cycle;Signal;HPM_P1;HPM_P2
2022/03/24 00:01:19;;;;;;;;;;;;;;;8.21;54.90;102435.28;5053529;28;19971;-75
2022/03/24 00:03:46;;;;;;;;;;;;;;;8.17;54.82;102440.38;5060009;28;20348;-75
2022/03/24 00:06:12;;;;;;;;;;;;;;;8.08;55.15;102435.06;5049889;28;19921;-75
2022/03/24 00:08:37;;;;;;;;;;;;;;;8.08;55.66;102441.13;5056137;28;20278;-75
2022/03/24 00:11:02;;;;;;;;;;;;;;;7.98;55.87;102434.03;5055513;28;19955;-81
2022/03/24 00:13:28;;;;;;;;;;;;;;;7.87;55.74;102438.19;5041312;28;19926;-79
2022/03/24 00:15:53;;;;;;;;;;;;;;;8.16;55.03;102438.63;5054297;28;19925;-80
2022/03/24 00:18:18;;;;;;;;;;;;;;;8.21;55.76;102432.69;5057508;28;19975;-80
2022/03/24 00:20:44;;;;;;;;;;;;;;;7.93;56.11;102437.41;5037598;28;19927;-80
2022/03/24 00:23:09;;;;;;;;;;;;;;;7.88;55.71;102436.47;5051468;28;20373;-80
2022/03/24 00:25:34;;;;;;;;;;;;;;;8.01;55.56;102433.22;5055983;28;20016;-81
2022/03/24 00:28:00;;;;;;;;;;;;;;;7.97;55.63;102432.28;5033981;28;19968;-80
2022/03/24 00:30:25;;;;;;;;;;;;;;;7.94;54.91;102429.66;5052599;28;19932;-81
2022/03/24 00:32:50;;;;;;;;;;;;;;;7.90;55.63;102432.19;5050896;28;19927;-80
2022/03/24 00:35:16;;;;;;;;;;;;;;;7.98;55.28;102428.00;5044756;28;19929;-80
2022/03/24 00:37:41;;;;;;;;;;;;;;;7.94;54.54;102424.47;5054065;28;19943;-80
2022/03/24 00:40:07;;;;;;;;;;;;;;;7.83;54.76;102420.84;5050644;28;19928;-81
2022/03/24 00:42:35;;;;;;;;;;;;;;;7.66;54.95;102423.16;5053133;28;19920;-78
2022/03/24 00:45:01;;;;;;;;;;;;;;;7.83;54.90;102425.16;5050173;28;19982;-81
2022/03/24 00:47:27;;;;;;;;;;;;;;;7.81;54.85;102421.69;5050620;28;19963;-80
2022/03/24 00:49:52;;;;;;;;;;;;;;;7.81;53.80;102421.69;5040547;28;19980;-75
2022/03/24 00:52:17;;;;;;;;;;;;;;;7.73;54.66;102426.75;5048643;28;20282;-79
2022/03/24 00:54:42;;;;;;;;;;;;;;;7.86;54.22;102422.63;5049851;28;19935;-75
2022/03/24 00:57:08;;;;;;;;;;;;;;;7.80;53.72;102418.22;5049468;28;19924;-75
2022/03/24 00:59:34;;;;;;;;;;;;;;;7.78;54.20;102417.34;5041115;28;20491;-78
2022/03/24 01:01:59;;;;;;;;;;;;;;;7.74;53.53;102419.81;5050642;28;20309;-81
2022/03/24 01:04:24;;;;;;;;;;;;;;;7.63;54.44;102419.66;5053381;28;19949;-80
2022/03/24 01:06:49;;;;;;;;;;;;;;;7.55;54.67;102422.09;5045569;28;20293;-80
2022/03/24 01:09:15;;;;;;;;;;;;;;;7.46;53.92;102421.09;5049239;28;20019;-80
2022/03/24 01:11:40;;;;;;;;;;;;;;;7.74;54.11;102415.53;5053596;28;19943;-75
2022/03/24 01:14:07;;;;;;;;;;;;;;;7.47;54.33;102415.03;5047676;28;20358;-80
2022/03/24 01:16:33;;;;;;;;;;;;;;;7.62;54.10;102418.78;5044281;28;19916;-80
2022/03/24 01:18:58;;;;;;;;;;;;;;;7.63;54.09;102420.53;5053461;28;20313;-79
2022/03/24 01:21:23;;;;;;;;;;;;;;;7.79;54.14;102418.22;5066258;28;19927;-74
2022/03/24 01:23:49;;;;;;;;;;;;;;;7.62;53.35;102417.91;5057124;28;19925;-75
2022/03/24 01:26:16;;;;;;;;;;;;;;;7.59;53.87;102407.50;5056574;28;20341;-75
2022/03/24 01:28:41;;;;;;;;;;;;;;;7.43;53.68;102413.28;5047335;28;19925;-79
2022/03/24 01:31:08;;;;;;;;;;;;;;;7.08;55.15;102415.16;5059831;28;19917;-79
2022/03/24 01:33:34;;;;;;;;;;;;;;;7.40;54.64;102408.91;5057555;28;20035;-81
2022/03/24 01:36:00;;;;;;;;;;;;;;;7.56;53.48;102410.03;5063112;28;19990;-75
2022/03/24 01:38:25;;;;;;;;;;;;;;;7.65;53.90;102413.66;5061545;28;20332;-75
2022/03/24 01:40:51;;;;;;;;;;;;;;;7.48;52.93;102406.44;5057737;28;19920;-75
2022/03/24 01:43:17;;;;;;;;;;;;;;;7.43;53.94;102411.56;5049697;28;20051;-75
2022/03/24 01:45:43;;;;;;;;;;;;;;;7.62;53.39;102407.56;5061842;28;20436;-81
2022/03/24 01:48:08;;;;;;;;;;;;;;;7.46;53.61;102408.16;5067922;28;20027;-80
2022/03/24 01:50:34;;;;;;;;;;;;;;;7.33;52.72;102401.00;5048741;28;19998;-80
2022/03/24 01:53:00;;;;;;;;;;;;;;;7.23;54.23;102410.28;5041928;28;19929;-80
2022/03/24 01:55:25;;;;;;;;;;;;;;;7.44;53.52;102399.47;5054142;28;20371;-80
2022/03/24 01:57:51;;;;;;;;;;;;;;;7.54;53.28;102402.25;5057593;28;19912;-79
2022/03/24 02:00:17;;;;;;;;;;;;;;;7.11;54.15;102408.34;5053175;28;19949;-77
2022/03/24 02:02:43;;;;;;;;;;;;;;;7.46;53.21;102406.44;5053526;28;20046;-81
2022/03/24 02:05:08;;;;;;;;;;;;;;;7.50;53.17;102408.22;5051854;28;19967;-75
2022/03/24 02:07:34;;;;;;;;;;;;;;;7.59;52.40;102402.34;5054762;28;19939;-75
2022/03/24 02:09:59;;;;;;;;;;;;;;;6.96;54.59;102400.31;5062734;28;19940;-75
2022/03/24 02:12:25;;;;;;;;;;;;;;;7.35;53.63;102404.47;5052897;28;19943;-81
2022/03/24 02:14:51;;;;;;;;;;;;;;;7.35;53.51;102396.72;5044009;28;19917;-81
2022/03/24 02:17:19;;;;;;;;;;;;;;;7.50;52.76;102399.59;5049301;28;20015;-80
2022/03/24 02:19:45;;;;;;;;;;;;;;;7.40;53.26;102397.69;5045645;28;20294;-81
2022/03/24 02:22:14;;;;;;;;;;;;;;;7.36;53.04;102396.75;5057029;28;19921;-81
2022/03/24 02:24:40;;;;;;;;;;;;;;;7.33;53.61;102393.25;5053320;28;19929;-81
2022/03/24 02:27:05;;;;;;;;;;;;;;;7.17;52.83;102397.25;5052836;28;19983;-81
2022/03/24 02:29:31;;;;;;;;;;;;;;;7.34;52.90;102392.41;5055915;28;19928;-81
2022/03/24 02:31:56;;;;;;;;;;;;;;;7.40;52.81;102390.81;5052500;28;19917;-80
2022/03/24 02:34:37;;;;;;;;;;;;;;;7.35;52.86;102389.84;5051453;28;19943;-80
2022/03/24 02:37:06;;;;;;;;;;;;;;;7.35;52.92;102400.19;5056017;28;20420;-81
2022/03/24 02:39:32;;;;;;;;;;;;;;;7.28;52.90;102398.34;5056893;28;19986;-81
2022/03/24 02:41:58;;;;;;;;;;;;;;;7.24;53.61;102398.25;5053683;28;20389;-80
2022/03/24 02:44:25;;;;;;;;;;;;;;;7.18;53.77;102403.31;5066844;28;19927;-80
2022/03/24 02:46:52;;;;;;;;;;;;;;;7.30;52.47;102406.13;5037635;28;19921;-79
2022/03/24 02:49:18;;;;;;;;;;;;;;;6.96;53.13;102402.88;5049855;28;19979;-81
2022/03/24 02:51:43;;;;;;;;;;;;;;;7.12;52.65;102410.09;5060388;28;20352;-81
2022/03/24 02:54:09;;;;;;;;;;;;;;;7.20;53.21;102397.31;5050230;28;20008;-81
2022/03/24 02:56:35;;;;;;;;;;;;;;;7.21;53.69;102405.94;5058158;28;20452;-75
2022/03/24 02:59:01;;;;;;;;;;;;;;;7.22;53.38;102397.34;5050468;28;20032;-75
2022/03/24 03:01:26;;;;;;;;;;;;;;;7.03;53.06;102398.72;5051028;28;19912;-75
2022/03/24 03:03:55;;;;;;;;;;;;;;;7.03;53.88;102402.16;5054255;28;19921;-80
2022/03/24 03:06:21;;;;;;;;;;;;;;;7.22;52.65;102399.94;5053289;28;19920;-79
2022/03/24 03:08:49;;;;;;;;;;;;;;;6.96;53.18;102405.47;5051981;28;20099;-79
2022/03/24 03:11:20;;;;;;;;;;;;;;;6.52;53.97;102414.88;5052097;28;19968;-79
2022/03/24 03:13:46;;;;;;;;;;;;;;;6.92;53.76;102410.56;5052490;28;20412;-75
2022/03/24 03:16:12;;;;;;;;;;;;;;;7.04;53.25;102411.69;5051980;28;19956;-79
2022/03/24 03:18:37;;;;;;;;;;;;;;;7.09;53.73;102409.16;5030481;28;20397;-80
2022/03/24 03:21:03;;;;;;;;;;;;;;;7.01;52.72;102409.03;5051784;28;19920;-81
2022/03/24 03:23:28;;;;;;;;;;;;;;;7.14;52.28;102412.69;5047490;28;19925;-81
2022/03/24 03:25:56;;;;;;;;;;;;;;;7.02;53.74;102417.63;5052590;28;20377;-81
2022/03/24 03:28:21;;;;;;;;;;;;;;;7.11;53.54;102412.66;5048738;28;19921;-79
2022/03/24 03:30:47;;;;;;;;;;;;;;;7.05;52.20;102413.41;5046654;28;19921;-80
2022/03/24 03:33:12;;;;;;;;;;;;;;;7.05;52.65;102417.69;5047801;28;19921;-80
2022/03/24 03:35:38;;;;;;;;;;;;;;;7.04;52.47;102416.84;5047388;28;19921;-75
2022/03/24 03:38:03;;;;;;;;;;;;;;;6.98;53.14;102414.16;5049738;28;20301;-81
2022/03/24 03:40:29;;;;;;;;;;;;;;;6.67;52.98;102410.88;5035585;28;19987;-81
2022/03/24 03:42:54;;;;;;;;;;;;;;;6.95;53.52;102415.78;5056757;28;19917;-79
2022/03/24 03:45:20;;;;;;;;;;;;;;;6.84;53.03;102418.13;5048465;28;20372;-78
2022/03/24 03:47:45;;;;;;;;;;;;;;;6.76;53.34;102421.41;5049257;28;21180;-78
2022/03/24 03:50:11;;;;;;;;;;;;;;;6.81;53.30;102420.66;5045350;28;20019;-81
2022/03/24 03:52:37;;;;;;;;;;;;;;;6.79;52.88;102413.72;5058537;28;19920;-81
2022/03/24 03:55:03;;;;;;;;;;;;;;;6.76;53.03;102421.41;5033999;28;19963;-81
2022/03/24 03:57:28;;;;;;;;;;;;;;;6.63;53.34;102417.72;5059389;28;19965;-81
2022/03/24 03:59:53;;;;;;;;;;;;;;;6.67;52.93;102426.38;5028941;28;19921;-81
2022/03/24 04:02:18;;;;;;;;;;;;;;;6.92;52.98;102419.19;5058599;28;20845;-81
2022/03/24 04:04:44;;;;;;;;;;;;;;;6.84;52.46;102417.28;5057233;28;20332;-81
2022/03/24 04:07:09;;;;;;;;;;;;;;;6.61;53.36;102419.38;5058793;28;19928;-81
2022/03/24 04:09:35;;;;;;;;;;;;;;;6.44;53.53;102418.09;5056242;28;20377;-79
2022/03/24 04:12:00;;;;;;;;;;;;;;;6.69;53.20;102415.25;5052771;28;19996;-79
2022/03/24 04:14:25;;;;;;;;;;;;;;;6.87;52.23;102417.34;5044843;28;19917;-78
2022/03/24 04:16:51;;;;;;;;;;;;;;;6.74;52.46;102416.22;5052171;28;19952;-78
2022/03/24 04:19:19;;;;;;;;;;;;;;;6.52;53.17;102416.59;5053464;28;20373;-79
2022/03/24 04:21:44;;;;;;;;;;;;;;;6.31;54.23;102418.66;5047868;28;19913;-79
2022/03/24 04:24:10;;;;;;;;;;;;;;;6.78;52.54;102419.75;5054711;28;20453;-75
2022/03/24 04:26:35;;;;;;;;;;;;;;;6.80;52.51;102411.19;5049574;28;19952;-75
2022/03/24 04:29:01;;;;;;;;;;;;;;;6.68;53.19;102417.78;5035990;28;19928;-81
2022/03/24 04:31:26;;;;;;;;;;;;;;;6.63;53.91;102409.09;5049803;28;19966;-81
2022/03/24 04:33:52;;;;;;;;;;;;;;;6.88;52.43;102409.63;5047259;28;20370;-81
2022/03/24 04:36:17;;;;;;;;;;;;;;;6.81;52.90;102409.47;5047937;28;19925;-78
2022/03/24 04:38:42;;;;;;;;;;;;;;;6.54;52.82;102413.19;5056307;28;20395;-75
2022/03/24 04:41:08;;;;;;;;;;;;;;;6.51;52.86;102417.44;5049306;28;19923;-81
2022/03/24 04:43:34;;;;;;;;;;;;;;;6.61;52.95;102424.53;5054083;28;19932;-75
2022/03/24 04:45:59;;;;;;;;;;;;;;;6.68;52.16;102410.94;5049639;28;19908;-75
2022/03/24 04:48:24;;;;;;;;;;;;;;;6.38;53.47;102417.97;5050786;28;20365;-81
2022/03/24 04:50:50;;;;;;;;;;;;;;;6.44;54.33;102421.56;5050750;28;19925;-81
2022/03/24 04:53:15;;;;;;;;;;;;;;;6.62;52.91;102417.66;5057008;28;19956;-80
2022/03/24 04:55:44;;;;;;;;;;;;;;;6.44;53.21;102420.69;5059175;28;19970;-79
2022/03/24 04:58:10;;;;;;;;;;;;;;;6.32;53.48;102415.25;5053982;28;19921;-75
2022/03/24 05:00:35;;;;;;;;;;;;;;;6.29;52.62;102412.59;5056210;28;20020;-75
2022/03/24 05:03:00;;;;;;;;;;;;;;;6.36;53.64;102417.94;5053680;28;20008;-75
2022/03/24 05:05:26;;;;;;;;;;;;;;;6.62;52.43;102415.97;5053591;28;19928;-75
2022/03/24 05:07:51;;;;;;;;;;;;;;;6.41;52.76;102412.88;5059374;28;19940;-75
2022/03/24 05:10:16;;;;;;;;;;;;;;;6.18;52.75;102419.22;5052863;28;20554;-76
2022/03/24 05:12:42;;;;;;;;;;;;;;;6.24;53.75;102422.84;5056847;28;19924;-75
2022/03/24 05:15:08;;;;;;;;;;;;;;;6.49;53.08;102419.97;5054161;28;19925;-75
2022/03/24 05:17:34;;;;;;;;;;;;;;;6.44;52.82;102415.53;5059605;28;19928;-75
2022/03/24 05:19:59;;;;;;;;;;;;;;;6.51;53.34;102420.88;5052676;28;19925;-75
2022/03/24 05:22:24;;;;;;;;;;;;;;;6.35;53.46;102423.06;5059748;28;20117;-75
2022/03/24 05:24:50;;;;;;;;;;;;;;;6.05;53.53;102423.22;5057602;28;19933;-75
2022/03/24 05:27:15;;;;;;;;;;;;;;;6.12;53.04;102419.09;5037978;28;20429;-75
2022/03/24 05:29:40;;;;;;;;;;;;;;;6.42;53.63;102436.16;5052179;28;20369;-80
2022/03/24 05:32:06;;;;;;;;;;;;;;;6.46;53.89;102431.91;5047074;28;19927;-80
2022/03/24 05:34:31;;;;;;;;;;;;;;;6.48;53.26;102435.44;5045452;28;20031;-80
2022/03/24 05:36:57;;;;;;;;;;;;;;;6.59;53.25;102433.97;5040281;28;20004;-75
2022/03/24 05:39:23;;;;;;;;;;;;;;;6.18;53.38;102435.59;5050853;28;19976;-81
2022/03/24 05:41:48;;;;;;;;;;;;;;;5.81;54.55;102435.50;5049578;28;19928;-80
2022/03/24 05:44:13;;;;;;;;;;;;;;;5.70;54.94;102439.53;5053759;28;19920;-81
2022/03/24 05:46:41;;;;;;;;;;;;;;;6.06;54.67;102442.16;5055769;28;19971;-81
2022/03/24 05:49:14;;;;;;;;;;;;;;;6.23;54.17;102446.88;5058497;28;19929;-81
2022/03/24 05:51:39;;;;;;;;;;;;;;;6.54;53.92;102440.75;5050590;28;19923;-79
2022/03/24 05:54:05;;;;;;;;;;;;;;;6.56;53.26;102444.22;5070161;28;20390;-79
2022/03/24 05:56:31;;;;;;;;;;;;;;;6.39;54.06;102442.94;5051361;28;19921;-82
2022/03/24 05:58:56;;;;;;;;;;;;;;;6.32;53.25;102447.09;5037287;28;19921;-79
2022/03/24 06:01:24;;;;;;;;;;;;;;;6.47;52.90;102446.56;5046810;28;20381;-75
2022/03/24 06:03:51;;;;;;;;;;;;;;;6.47;53.82;102441.41;5057941;28;19995;-81
2022/03/24 06:06:16;;;;;;;;;;;;;;;6.41;54.25;102452.47;5059809;28;20301;-79
2022/03/24 06:08:42;;;;;;;;;;;;;;;6.40;53.65;102447.25;5056555;28;19921;-81
2022/03/24 06:11:09;;;;;;;;;;;;;;;6.32;54.55;102451.38;5057357;28;19932;-78
2022/03/24 06:13:36;;;;;;;;;;;;;;;6.38;53.67;102449.81;5054123;28;20020;-79
2022/03/24 06:16:01;;;;;;;;;;;;;;;6.57;54.58;102458.88;5036349;28;20450;-81
2022/03/24 06:18:27;;;;;;;;;;;;;;;6.59;53.44;102454.63;5052869;28;19921;-81
2022/03/24 06:20:53;;;;;;;;;;;;;;;6.61;53.47;102462.38;5045711;28;19936;-75
2022/03/24 06:23:18;;;;;;;;;;;;;;;6.58;53.74;102456.31;5054070;28;19920;-82
2022/03/24 06:25:43;;;;;;;;;;;;;;;6.23;55.32;102462.38;5046861;28;19960;-79
2022/03/24 06:28:09;;;;;;;;;;;;;;;6.45;54.74;102461.16;5048848;28;20019;-79
2022/03/24 06:30:34;;;;;;;;;;;;;;;6.51;54.59;102454.44;5046918;28;19960;-79
2022/03/24 06:33:00;;;;;;;;;;;;;;;6.54;54.76;102456.25;5055555;28;19921;-81
2022/03/24 06:35:25;;;;;;;;;;;;;;;6.44;54.46;102462.00;5061056;28;19928;-79
2022/03/24 06:38:00;;;;;;;;;;;;;;;6.61;54.63;102460.69;5038377;28;19921;-76
2022/03/24 06:40:25;;;;;;;;;;;;;;;6.68;54.61;102454.81;5056335;28;20321;-80
2022/03/24 06:42:52;;;;;;;;;;;;;;;6.75;54.08;102456.69;5048860;28;19928;-82
2022/03/24 06:45:18;;;;;;;;;;;;;;;6.73;54.15;102450.63;5045785;28;20011;-81
2022/03/24 06:47:43;;;;;;;;;;;;;;;6.64;55.06;102459.88;5058575;28;20023;-81
2022/03/24 06:50:12;;;;;;;;;;;;;;;6.70;54.70;102453.13;5041667;28;19933;-81
2022/03/24 06:52:38;;;;;;;;;;;;;;;6.85;54.74;102457.75;5054112;28;19928;-80
2022/03/24 06:55:05;;;;;;;;;;;;;;;6.67;54.90;102457.34;5050255;28;19999;-81
2022/03/24 06:57:30;;;;;;;;;;;;;;;6.81;55.36;102461.13;5047604;28;19917;-75
2022/03/24 06:59:59;;;;;;;;;;;;;;;6.82;54.85;102458.56;5051751;28;19931;-81
2022/03/24 07:02:24;;;;;;;;;;;;;;;6.65;56.39;102449.59;5041623;28;19933;-81
2022/03/24 07:04:49;;;;;;;;;;;;;;;6.81;56.28;102454.22;5057704;28;19917;-81
2022/03/24 07:07:15;;;;;;;;;;;;;;;7.13;54.08;102460.97;5051808;28;19928;-81
2022/03/24 07:09:40;;;;;;;;;;;;;;;7.09;54.57;102461.72;5051255;28;19939;-81
2022/03/24 07:12:05;;;;;;;;;;;;;;;7.09;54.70;102458.25;5031558;28;19921;-81
2022/03/24 07:14:31;;;;;;;;;;;;;;;7.18;55.74;102465.31;5051498;28;19932;-81
2022/03/24 07:16:56;;;;;;;;;;;;;;;7.13;56.29;102455.78;5054953;28;20022;-81
2022/03/24 07:19:21;;;;;;;;;;;;;;;7.04;56.12;102462.47;5054607;28;19921;-79
2022/03/24 07:21:47;;;;;;;;;;;;;;;7.03;56.11;102464.19;5054265;28;19935;-81
2022/03/24 07:24:12;;;;;;;;;;;;;;;7.05;56.05;102471.94;5053360;28;19929;-81
2022/03/24 07:26:38;;;;;;;;;;;;;;;7.23;56.14;102472.31;5050717;28;20324;-81
2022/03/24 07:29:04;;;;;;;;;;;;;;;7.20;56.77;102472.25;5054348;28;20642;-81
2022/03/24 07:31:29;;;;;;;;;;;;;;;7.27;56.44;102468.09;5051536;28;20006;-81
2022/03/24 07:33:56;;;;;;;;;;;;;;;7.25;56.86;102474.97;5054082;28;19917;-81
2022/03/24 07:36:22;;;;;;;;;;;;;;;7.39;56.82;102468.34;5056068;28;19916;-81
2022/03/24 07:38:48;;;;;;;;;;;;;;;7.36;56.59;102463.97;5053519;28;19925;-81
2022/03/24 07:41:14;;;;;;;;;;;;;;;7.35;56.21;102471.69;5052634;28;20340;-81
2022/03/24 07:43:40;;;;;;;;;;;;;;;7.42;56.18;102466.69;5053290;28;19929;-80
2022/03/24 07:46:05;;;;;;;;;;;;;;;7.60;55.06;102466.16;5052424;28;20316;-75
2022/03/24 07:48:31;;;;;;;;;;;;;;;7.44;56.16;102477.03;5050711;28;20400;-75
2022/03/24 07:50:57;;;;;;;;;;;;;;;7.51;56.79;102478.91;5047688;28;19933;-81
2022/03/24 07:53:28;;;;;;;;;;;;;;;7.61;56.08;102467.91;5056267;28;19921;-81
2022/03/24 07:55:55;;;;;;;;;;;;;;;7.53;56.31;102474.63;5045332;28;19985;-75
2022/03/24 07:58:21;;;;;;;;;;;;;;;7.54;56.41;102471.22;5049437;28;20404;-80
2022/03/24 08:00:47;;;;;;;;;;;;;;;7.62;56.81;102482.56;5054076;28;19913;-75
2022/03/24 08:03:15;;;;;;;;;;;;;;;7.90;56.38;102477.03;5050382;28;19921;-75
2022/03/24 08:05:41;;;;;;;;;;;;;;;7.79;57.07;102482.88;5046802;28;19925;-81
2022/03/24 08:08:09;;;;;;;;;;;;;;;7.81;56.61;102484.66;5050853;28;21609;-80
2022/03/24 08:10:35;;;;;;;;;;;;;;;7.95;56.42;102483.16;5047821;28;19925;-81
2022/03/24 08:13:00;;;;;;;;;;;;;;;7.95;56.46;102477.97;5052243;28;19923;-81
2022/03/24 08:15:25;;;;;;;;;;;;;;;8.11;56.38;102487.75;5051508;28;20480;-81
2022/03/24 08:17:51;;;;;;;;;;;;;;;8.19;55.54;102487.88;5047879;28;19928;-79
2022/03/24 08:20:16;;;;;;;;;;;;;;;8.02;57.25;102485.03;5056228;28;19932;-81
2022/03/24 08:22:41;;;;;;;;;;;;;;;8.27;55.41;102483.69;5058295;28;19921;-81
2022/03/24 08:25:09;;;;;;;;;;;;;;;8.11;55.95;102486.88;5054041;28;19960;-81
2022/03/24 08:27:37;;;;;;;;;;;;;;;8.02;56.94;102486.72;5050184;28;19932;-80
2022/03/24 08:30:04;;;;;;;;;;;;;;;8.08;56.84;102486.84;5034105;28;19928;-80
2022/03/24 08:32:29;;;;;;;;;;;;;;;8.14;56.79;102486.94;5047481;28;19921;-81
2022/03/24 08:34:54;;;;;;;;;;;;;;;8.08;56.87;102481.66;5052426;28;19940;-79
2022/03/24 08:37:20;;;;;;;;;;;;;;;8.17;56.01;102481.81;5050407;28;20300;-79
2022/03/24 08:39:45;;;;;;;;;;;;;;;8.11;56.78;102490.34;5060940;28;19924;-79
2022/03/24 08:42:10;;;;;;;;;;;;;;;8.37;55.61;102484.72;5055878;28;19916;-79
2022/03/24 08:44:35;;;;;;;;;;;;;;;8.38;55.56;102478.72;5052801;28;20305;-79
2022/03/24 08:47:01;;;;;;;;;;;;;;;8.27;57.42;102485.41;5051200;28;20004;-79
2022/03/24 08:49:27;;;;;;;;;;;;;;;8.36;57.36;102485.56;5051559;28;20385;-80
2022/03/24 08:51:52;;;;;;;;;;;;;;;8.36;57.34;102489.03;5043072;28;19923;-81
2022/03/24 08:54:17;;;;;;;;;;;;;;;8.35;56.14;102487.31;5051495;28;19931;-81
2022/03/24 08:56:42;;;;;;;;;;;;;;;8.40;57.25;102484.78;5057521;28;19935;-76
2022/03/24 08:59:09;;;;;;;;;;;;;;;8.56;53.46;102476.41;5050254;28;19925;-81
2022/03/24 09:01:34;;;;;;;;;;;;;;;8.52;54.11;102484.97;5047161;28;20320;-81
2022/03/24 09:04:00;;;;;;;;;;;;;;;8.63;50.99;102476.50;5051235;28;19917;-81
2022/03/24 09:06:25;;;;;;;;;;;;;;;8.63;51.50;102476.50;5049350;28;19975;-81
2022/03/24 09:08:52;;;;;;;;;;;;;;;8.70;52.61;102480.94;5045110;28;20343;-75
2022/03/24 09:11:18;;;;;;;;;;;;;;;8.84;51.50;102475.03;5046638;28;20024;-79
2022/03/24 09:13:43;;;;;;;;;;;;;;;8.84;52.58;102485.41;5049784;28;20027;-79
2022/03/24 09:16:08;;;;;;;;;;;;;;;8.77;53.95;102480.13;5049408;28;19933;-78
2022/03/24 09:18:34;;;;;;;;;;;;;;;8.87;53.44;102478.56;5050914;28;20008;-75
2022/03/24 09:20:59;;;;;;;;;;;;;;;8.92;51.74;102481.22;5055705;28;19917;-75
2022/03/24 09:23:26;;;;;;;;;;;;;;;9.01;53.80;102478.75;5047841;28;19924;-79
2022/03/24 09:25:52;;;;;;;;;;;;;;;8.96;55.13;102488.16;5047017;28;19920;-79
2022/03/24 09:28:17;;;;;;;;;;;;;;;9.08;56.11;102483.13;5050695;28;20483;-76
2022/03/24 09:30:43;;;;;;;;;;;;;;;9.12;54.80;102480.63;5051169;28;19928;-75
2022/03/24 09:33:11;;;;;;;;;;;;;;;9.19;53.95;102477.22;5050113;28;20361;-81
2022/03/24 09:35:37;;;;;;;;;;;;;;;9.17;53.59;102483.25;5049615;28;19916;-80
2022/03/24 09:38:02;;;;;;;;;;;;;;;9.18;52.55;102469.44;5052293;28;20399;-81
2022/03/24 09:40:28;;;;;;;;;;;;;;;9.31;52.66;102481.69;5056119;28;20281;-80
2022/03/24 09:42:55;;;;;;;;;;;;;;;9.45;51.44;102482.72;5062696;28;19917;-81
2022/03/24 09:45:20;;;;;;;;;;;;;;;9.38;52.75;102483.50;5060588;28;20408;-79
2022/03/24 09:47:46;;;;;;;;;;;;;;;9.35;52.63;102481.75;5055232;28;19963;-79
2022/03/24 09:50:14;;;;;;;;;;;;;;;9.42;51.91;102479.22;5053634;28;19931;-78
2022/03/24 09:52:40;;;;;;;;;;;;;;;9.45;52.58;102477.53;5056334;28;19960;-78
2022/03/24 09:55:06;;;;;;;;;;;;;;;9.55;51.51;102474.16;5037893;28;20435;-79
2022/03/24 09:57:33;;;;;;;;;;;;;;;9.60;50.87;102476.84;5055714;28;19920;-80
2022/03/24 09:59:58;;;;;;;;;;;;;;;9.60;50.65;102472.47;5054957;28;19931;-81
2022/03/24 10:02:24;;;;;;;;;;;;;;;9.60;50.92;102475.06;5035775;28;19924;-80
2022/03/24 10:04:49;;;;;;;;;;;;;;;9.61;50.40;102478.56;5054754;28;19928;-80
2022/03/24 10:07:14;;;;;;;;;;;;;;;9.77;48.23;102472.66;5050045;28;19916;-81
2022/03/24 10:09:40;;;;;;;;;;;;;;;9.80;48.31;102473.56;5055394;28;20420;-79
2022/03/24 10:12:07;;;;;;;;;;;;;;;9.85;47.58;102466.69;5052305;28;20400;-80
2022/03/24 10:14:32;;;;;;;;;;;;;;;9.93;47.31;102468.53;5050012;28;19920;-79
2022/03/24 10:17:08;;;;;;;;;;;;;;;10.03;46.46;102470.31;5054231;28;19932;-75
2022/03/24 10:19:34;;;;;;;;;;;;;;;9.97;46.78;102465.09;5051366;28;20020;-80
2022/03/24 10:22:06;;;;;;;;;;;;;;;10.05;46.33;102468.63;5055406;28;20011;-79
2022/03/24 10:24:38;;;;;;;;;;;;;;;10.00;47.12;102462.50;5052570;28;19928;-80
2022/03/24 10:27:03;;;;;;;;;;;;;;;10.01;47.29;102466.84;5054431;28;19928;-79
2022/03/24 10:29:29;;;;;;;;;;;;;;;10.02;49.14;102459.06;5056597;28;19924;-79
2022/03/24 10:32:09;;;;;;;;;;;;;;;10.08;49.10;102450.47;5059041;28;20424;-79
2022/03/24 10:34:36;;;;;;;;;;;;;;;10.16;48.36;102449.69;5049906;28;19921;-75
2022/03/24 10:37:09;;;;;;;;;;;;;;;10.18;48.62;102455.75;5047027;28;19920;-80
2022/03/24 10:39:36;;;;;;;;;;;;;;;10.29;48.48;102453.22;5049107;28;20384;-80
2022/03/24 10:42:15;;;;;;;;;;;;;;;10.31;48.85;102457.59;5018018;28;19936;-80
2022/03/24 10:44:59;;;;;;;;;;;;;;;10.25;51.10;102460.13;5048461;28;20413;-80
2022/03/24 10:47:39;;;;;;;;;;;;;;;10.29;50.59;102445.41;5056904;28;20308;-75
2022/03/24 10:50:22;;;;;;;;;;;;;;;10.34;50.60;102452.38;5044156;28;19979;-75
2022/03/24 10:52:47;;;;;;;;;;;;;;;10.40;49.71;102446.38;5045242;28;19983;-80
2022/03/24 10:55:19;;;;;;;;;;;;;;;10.41;49.17;102438.59;5051741;28;19924;-80
2022/03/24 10:57:44;;;;;;;;;;;;;;;10.50;49.49;102445.56;5050236;28;19921;-78
2022/03/24 11:00:11;;;;;;;;;;;;;;;10.48;49.26;102442.09;5051638;28;19928;-80
2022/03/24 11:02:37;;;;;;;;;;;;;;;10.40;49.34;102443.78;5050166;28;20369;-80
2022/03/24 11:05:02;;;;;;;;;;;;;;;10.45;50.42;102445.53;5055237;28;19947;-80
2022/03/24 11:07:28;;;;;;;;;;;;;;;10.48;50.07;102436.91;5058312;28;20396;-80
2022/03/24 11:09:54;;;;;;;;;;;;;;;10.55;48.86;102440.41;5056256;28;20100;-75
2022/03/24 11:12:22;;;;;;;;;;;;;;;10.52;49.49;102441.25;5050437;28;19923;-79
2022/03/24 11:14:50;;;;;;;;;;;;;;;10.57;50.25;102441.28;5048261;28;19920;-79
2022/03/24 11:17:17;;;;;;;;;;;;;;;10.58;50.87;102432.63;5057468;28;20525;-80
2022/03/24 11:19:45;;;;;;;;;;;;;;;10.52;50.79;102430.88;5052912;28;22016;-79
2022/03/24 11:22:12;;;;;;;;;;;;;;;10.56;50.39;102432.59;5033076;28;20365;-79
2022/03/24 11:24:37;;;;;;;;;;;;;;;10.64;49.53;102425.72;5053216;28;19982;-79
2022/03/24 11:27:03;;;;;;;;;;;;;;;10.70;49.26;102430.09;5050308;28;20381;-80
2022/03/24 11:29:29;;;;;;;;;;;;;;;10.62;50.67;102431.75;5035258;28;20381;-79
2022/03/24 11:31:54;;;;;;;;;;;;;;;10.68;49.83;102422.28;5055922;28;19928;-80
2022/03/24 11:34:19;;;;;;;;;;;;;;;10.64;50.42;102415.31;5046617;28;19963;-80
2022/03/24 11:36:45;;;;;;;;;;;;;;;10.75;48.97;102416.25;5054142;28;20019;-79
2022/03/24 11:39:11;;;;;;;;;;;;;;;10.78;52.28;102420.59;5051848;28;20759;-79
2022/03/24 11:41:42;;;;;;;;;;;;;;;10.70;49.36;102415.34;5043331;28;19920;-80
2022/03/24 11:44:10;;;;;;;;;;;;;;;10.86;47.99;102405.88;5049234;28;19925;-80
2022/03/24 11:46:42;;;;;;;;;;;;;;;10.96;46.91;102407.66;5054742;28;19970;-78
2022/03/24 11:49:12;;;;;;;;;;;;;;;10.88;47.26;102404.16;5050240;28;19928;-75
2022/03/24 11:51:38;;;;;;;;;;;;;;;10.94;46.52;102394.66;5055954;28;19935;-79
2022/03/24 11:54:05;;;;;;;;;;;;;;;10.86;48.48;102387.69;5052735;28;19921;-78
2022/03/24 11:56:31;;;;;;;;;;;;;;;10.88;48.60;102393.75;5045273;28;19925;-79
2022/03/24 11:58:56;;;;;;;;;;;;;;;11.02;46.63;102384.28;5051021;28;19943;-79
2022/03/24 12:01:24;;;;;;;;;;;;;;;11.10;43.74;102381.69;5048190;28;20293;-76
2022/03/24 12:03:59;;;;;;;;;;;;;;;11.15;43.30;102375.63;5050310;28;19942;-75
2022/03/24 12:06:43;;;;;;;;;;;;;;;11.12;43.89;102369.59;5048172;28;19921;-75
2022/03/24 12:09:13;;;;;;;;;;;;;;;11.26;43.03;102368.75;5047915;28;19976;-75
2022/03/24 12:11:42;;;;;;;;;;;;;;;11.13;44.88;102368.69;5056222;28;19993;-75
2022/03/24 12:14:09;;;;;;;;;;;;;;;11.09;44.67;102357.41;5035644;28;19978;-80
2022/03/24 12:16:37;;;;;;;;;;;;;;;11.20;43.60;102365.25;5048297;28;19964;-80
2022/03/24 12:19:03;;;;;;;;;;;;;;;11.23;42.76;102360.06;5058785;28;19917;-80
2022/03/24 12:21:29;;;;;;;;;;;;;;;11.29;42.06;102358.38;5049500;28;19929;-81
2022/03/24 12:24:13;;;;;;;;;;;;;;;11.33;41.38;102352.28;5052123;28;19925;-81
2022/03/24 12:26:40;;;;;;;;;;;;;;;11.33;42.78;102349.69;5058259;28;19998;-80
2022/03/24 12:29:11;;;;;;;;;;;;;;;11.68;39.57;102346.25;5055697;28;19977;-75
2022/03/24 12:31:57;;;;;;;;;;;;;;;11.68;39.96;102344.50;5052992;28;20463;-75
2022/03/24 12:34:26;;;;;;;;;;;;;;;11.55;40.09;102341.03;5041404;28;20411;-75
2022/03/24 12:36:52;;;;;;;;;;;;;;;11.52;40.77;102330.63;5052509;28;19921;-75
2022/03/24 12:39:34;;;;;;;;;;;;;;;11.62;38.71;102336.72;5068568;28;20329;-75
2022/03/24 12:42:04;;;;;;;;;;;;;;;11.54;39.58;102334.09;5045545;28;20412;-75